createdAt,value
2018-06-10T00:00:52.871Z,31.70
2018-06-10T00:03:21.442Z,30.67
2018-06-10T00:05:50.097Z,34.40
2018-06-10T00:08:19.214Z,32.37
2018-06-10T00:10:48.516Z,35.20
2018-06-10T00:13:17.366Z,36.53
2018-06-10T00:15:46.352Z,37.77
2018-06-10T00:18:14.953Z,38.77
2018-06-10T00:20:43.800Z,34.30
2018-06-10T00:23:12.936Z,33.70
2018-06-10T00:25:42.382Z,31.20
2018-06-10T00:28:11.484Z,30.50
2018-06-10T00:30:40.332Z,31.83
2018-06-10T00:33:09.540Z,34.23
2018-06-10T00:35:38.211Z,30.00
2018-06-10T00:38:07.057Z,31.63
2018-06-10T00:40:36.273Z,33.87
2018-06-10T00:43:05.989Z,34.00
2018-06-10T00:45:35.082Z,29.50
2018-06-10T00:48:03.923Z,30.80
2018-06-10T00:50:33.164Z,30.07
2018-06-10T00:53:02.641Z,34.90
2018-06-10T00:55:31.554Z,28.67
2018-06-10T00:58:00.650Z,28.97
2018-06-10T01:00:29.945Z,34.00
2018-06-10T01:02:58.520Z,35.30
2018-06-10T01:05:28.049Z,30.00
2018-06-10T01:07:57.041Z,31.70
2018-06-10T01:10:26.336Z,31.93
2018-06-10T01:12:55.153Z,34.00
2018-06-10T01:15:24.254Z,31.13
2018-06-10T01:17:53.195Z,30.53
2018-06-10T01:20:23.591Z,30.83
2018-06-10T01:22:52.409Z,32.57
2018-06-10T01:25:21.250Z,29.00
2018-06-10T01:27:50.138Z,30.80
2018-06-10T01:30:19.012Z,25.27
2018-06-10T01:32:48.065Z,33.60
2018-06-10T01:35:17.175Z,28.27
2018-06-10T01:37:46.041Z,27.97
2018-06-10T01:40:14.658Z,26.47
2018-06-10T01:42:43.510Z,28.97
2018-06-10T01:45:12.775Z,34.10
2018-06-10T01:47:41.481Z,30.33
2018-06-10T01:50:10.679Z,34.90
2018-06-10T01:52:39.593Z,30.33
2018-06-10T01:55:15.069Z,25.13
2018-06-10T01:57:44.597Z,26.77
2018-06-10T02:00:13.481Z,38.40
2018-06-10T02:02:42.349Z,29.23
2018-06-10T02:05:11.192Z,25.93
2018-06-10T02:07:40.071Z,31.00
2018-06-10T02:10:08.918Z,32.43
2018-06-10T02:12:37.771Z,30.00
2018-06-10T02:15:06.630Z,29.30
2018-06-10T02:17:35.460Z,30.70
2018-06-10T02:20:04.434Z,31.43
2018-06-10T02:22:33.927Z,34.70
2018-06-10T02:25:02.779Z,36.07
2018-06-10T02:27:32.255Z,32.83
2018-06-10T02:30:01.250Z,37.47
2018-06-10T02:32:30.133Z,40.13
2018-06-10T02:34:59.011Z,36.37
2018-06-10T02:37:28.012Z,34.37
2018-06-10T02:39:56.853Z,40.50
2018-06-10T02:42:25.681Z,43.77
2018-06-10T02:44:54.631Z,38.60
2018-06-10T02:47:23.557Z,41.43
2018-06-10T02:49:52.671Z,42.57
2018-06-10T02:52:21.510Z,37.47
2018-06-10T02:54:50.464Z,44.83
2018-06-10T02:57:19.398Z,44.87
2018-06-10T02:59:48.308Z,49.90
2018-06-10T03:02:17.198Z,41.43
2018-06-10T03:04:46.089Z,43.80
2018-06-10T03:07:14.652Z,41.53
2018-06-10T03:09:43.603Z,40.33
2018-06-10T03:12:12.529Z,37.03
2018-06-10T03:14:41.379Z,38.67
2018-06-10T03:17:09.990Z,35.57
2018-06-10T03:19:38.849Z,38.37
2018-06-10T03:22:07.769Z,35.83
2018-06-10T03:24:36.693Z,38.87
2018-06-10T03:27:05.572Z,37.73
2018-06-10T03:29:34.442Z,31.43
2018-06-10T03:32:03.317Z,38.40
2018-06-10T03:34:32.384Z,38.07
2018-06-10T03:37:01.216Z,45.87
2018-06-10T03:39:30.064Z,41.47
2018-06-10T03:41:58.925Z,37.77
2018-06-10T03:44:27.970Z,34.20
2018-06-10T03:46:56.789Z,36.70
2018-06-10T03:49:25.660Z,30.67
2018-06-10T03:51:54.521Z,39.83
2018-06-10T03:54:23.429Z,36.77
2018-06-10T03:56:52.343Z,35.70
2018-06-10T03:59:21.202Z,33.33
2018-06-10T04:01:50.033Z,38.27
2018-06-10T04:04:18.957Z,33.13
2018-06-10T04:06:47.823Z,44.03
2018-06-10T04:09:16.883Z,30.07
2018-06-10T04:11:45.751Z,33.13
2018-06-10T04:14:14.681Z,36.07
2018-06-10T04:16:44.366Z,44.30
2018-06-10T04:19:13.290Z,32.60
2018-06-10T04:21:45.148Z,32.63
2018-06-10T04:24:14.074Z,33.53
2018-06-10T04:26:42.696Z,34.40
2018-06-10T04:29:11.517Z,33.50
2018-06-10T04:31:40.509Z,28.00
2018-06-10T04:34:09.856Z,27.33
2018-06-10T04:36:38.836Z,31.67
2018-06-10T04:39:07.785Z,28.03
2018-06-10T04:41:36.684Z,30.83
2018-06-10T04:44:06.257Z,26.10
2018-06-10T04:46:35.112Z,27.77
2018-06-10T04:49:03.982Z,30.83
2018-06-10T04:51:33.176Z,21.40
2018-06-10T04:54:02.166Z,27.03
2018-06-10T04:56:31.234Z,25.87
2018-06-10T04:59:00.181Z,26.43
2018-06-10T05:01:29.094Z,25.67
2018-06-10T05:03:58.634Z,23.83
2018-06-10T05:06:27.497Z,27.20
2018-06-10T05:08:56.448Z,28.97
2018-06-10T05:11:25.268Z,31.70
2018-06-10T05:13:54.770Z,30.53
2018-06-10T05:16:23.763Z,33.90
2018-06-10T05:18:52.653Z,31.87
2018-06-10T05:21:21.602Z,34.60
2018-06-10T05:23:50.477Z,33.37
2018-06-10T05:26:19.386Z,30.33
2018-06-10T05:28:48.288Z,37.17
2018-06-10T05:31:17.106Z,33.20
2018-06-10T05:33:45.757Z,34.50
2018-06-10T05:36:14.733Z,32.30
2018-06-10T05:38:43.618Z,37.63
2018-06-10T05:41:12.469Z,34.23
2018-06-10T05:43:41.328Z,37.67
2018-06-10T05:46:10.193Z,35.80
2018-06-10T05:48:39.058Z,33.60
2018-06-10T05:51:08.010Z,30.67
2018-06-10T05:53:36.853Z,37.40
2018-06-10T05:56:05.830Z,31.50
2018-06-10T05:58:34.648Z,27.40
2018-06-10T06:01:03.518Z,27.93
2018-06-10T06:03:32.364Z,31.93
2018-06-10T06:06:02.011Z,31.40
2018-06-10T06:08:30.815Z,29.00
2018-06-10T06:11:00.426Z,28.57
2018-06-10T06:13:29.284Z,30.57
2018-06-10T06:15:58.295Z,26.50
2018-06-10T06:18:26.893Z,31.53
2018-06-10T06:20:55.766Z,29.30
2018-06-10T06:23:24.648Z,26.80
2018-06-10T06:25:53.304Z,24.57
2018-06-10T06:28:22.153Z,27.93
2018-06-10T06:30:51.019Z,25.97
2018-06-10T06:33:20.020Z,26.57
2018-06-10T06:35:49.749Z,31.80
2018-06-10T06:38:18.646Z,24.60
2018-06-10T06:40:47.520Z,23.43
2018-06-10T06:43:16.561Z,26.43
2018-06-10T06:45:45.439Z,20.70
2018-06-10T06:48:14.295Z,22.00
2018-06-10T06:50:43.167Z,18.83
2018-06-10T06:53:12.065Z,18.87
2018-06-10T06:55:40.596Z,20.17
2018-06-10T06:58:09.522Z,19.47
2018-06-10T07:00:38.525Z,17.37
2018-06-10T07:03:08.102Z,19.40
2018-06-10T07:05:36.987Z,15.37
2018-06-10T07:08:06.056Z,16.53
2018-06-10T07:10:34.933Z,16.63
2018-06-10T07:13:03.709Z,16.43
2018-06-10T07:15:32.336Z,21.33
2018-06-10T07:18:01.407Z,15.63
2018-06-10T07:20:30.375Z,17.47
2018-06-10T07:22:59.305Z,17.63
2018-06-10T07:25:28.331Z,19.13
2018-06-10T07:27:57.205Z,17.53
2018-06-10T07:30:26.163Z,15.03
2018-06-10T07:32:55.293Z,17.67
2018-06-10T07:35:24.326Z,21.17
2018-06-10T07:37:54.075Z,17.93
2018-06-10T07:40:23.014Z,16.03
2018-06-10T07:42:51.917Z,14.93
2018-06-10T07:45:20.836Z,17.07
2018-06-10T07:47:49.821Z,16.67
2018-06-10T07:50:18.691Z,16.67
2018-06-10T07:52:47.581Z,15.83
2018-06-10T07:55:16.444Z,17.60
2018-06-10T07:57:45.304Z,15.97
2018-06-10T08:00:14.254Z,12.63
2018-06-10T08:02:43.443Z,16.43
2018-06-10T08:05:12.592Z,17.20
2018-06-10T08:07:41.813Z,16.97
2018-06-10T08:10:10.711Z,22.47
2018-06-10T08:12:39.621Z,17.40
2018-06-10T08:15:08.992Z,17.93
2018-06-10T08:17:37.939Z,15.50
2018-06-10T08:20:06.801Z,19.10
2018-06-10T08:22:35.688Z,15.33
2018-06-10T08:25:04.744Z,17.20
2018-06-10T08:27:33.985Z,12.83
2018-06-10T08:30:02.945Z,14.80
2018-06-10T08:32:31.834Z,11.40
2018-06-10T08:35:00.742Z,15.50
2018-06-10T08:37:29.770Z,10.73
2018-06-10T08:39:58.667Z,11.53
2018-06-10T08:42:27.581Z,11.87
2018-06-10T08:44:56.552Z,11.77
2018-06-10T08:47:25.445Z,10.90
2018-06-10T08:49:54.359Z,11.77
2018-06-10T08:52:23.260Z,10.97
2018-06-10T08:54:52.200Z,9.47
2018-06-10T08:57:21.094Z,11.17
2018-06-10T08:59:50.009Z,11.67
2018-06-10T09:02:18.916Z,9.87
2018-06-10T09:04:47.795Z,8.97
2018-06-10T09:07:16.687Z,10.43
2018-06-10T09:09:45.587Z,9.97
2018-06-10T09:12:14.476Z,12.03
2018-06-10T09:14:43.111Z,10.27
2018-06-10T09:17:12.224Z,9.10
2018-06-10T09:19:41.144Z,8.70
2018-06-10T09:22:10.030Z,10.23
2018-06-10T09:24:38.926Z,11.33
2018-06-10T09:27:07.856Z,10.53
2018-06-10T09:29:36.725Z,9.50
2018-06-10T09:32:05.648Z,9.83
2018-06-10T09:34:34.489Z,10.00
2018-06-10T09:37:03.345Z,9.57
2018-06-10T09:39:32.278Z,12.40
2018-06-10T09:42:01.246Z,12.30
2018-06-10T09:44:30.456Z,8.80
2018-06-10T09:46:59.335Z,11.93
2018-06-10T09:49:28.226Z,11.73
2018-06-10T09:51:57.174Z,9.00
2018-06-10T09:54:26.060Z,10.97
2018-06-10T09:56:55.327Z,12.47
2018-06-10T09:59:24.390Z,8.80
2018-06-10T10:01:53.289Z,9.23
2018-06-10T10:04:22.242Z,10.90
2018-06-10T10:06:51.090Z,8.50
2018-06-10T10:09:20.091Z,7.50
2018-06-10T10:11:49.624Z,9.00
2018-06-10T10:14:18.692Z,9.50
2018-06-10T10:16:47.631Z,11.97
2018-06-10T10:19:16.608Z,11.53
2018-06-10T10:21:45.578Z,9.57
2018-06-10T10:24:14.538Z,10.23
2018-06-10T10:26:43.561Z,10.20
2018-06-10T10:29:12.522Z,10.57
2018-06-10T10:31:41.442Z,10.10
2018-06-10T10:34:10.325Z,7.73
2018-06-10T10:36:39.281Z,9.70
2018-06-10T10:39:08.537Z,8.10
2018-06-10T10:41:37.461Z,11.23
2018-06-10T10:44:06.408Z,8.53
2018-06-10T10:46:35.377Z,12.57
2018-06-10T10:49:04.281Z,10.70
2018-06-10T10:51:33.171Z,9.57
2018-06-10T10:54:02.141Z,7.40
2018-06-10T10:56:31.124Z,7.57
2018-06-10T10:59:00.137Z,7.27
2018-06-10T11:01:29.034Z,7.67
2018-06-10T11:03:58.063Z,6.03
2018-06-10T11:06:26.936Z,8.60
2018-06-10T11:08:55.843Z,10.23
2018-06-10T11:11:24.790Z,6.63
2018-06-10T11:13:53.788Z,7.93
2018-06-10T11:16:22.791Z,8.97
2018-06-10T11:18:51.726Z,5.83
2018-06-10T11:21:20.769Z,10.57
2018-06-10T11:23:49.924Z,9.03
2018-06-10T11:26:18.822Z,7.60
2018-06-10T11:28:48.242Z,9.70
2018-06-10T11:31:17.210Z,7.60
2018-06-10T11:33:45.902Z,8.40
2018-06-10T11:36:14.824Z,11.27
2018-06-10T11:38:43.756Z,7.47
2018-06-10T11:41:12.706Z,8.23
2018-06-10T11:43:41.681Z,8.80
2018-06-10T11:46:10.517Z,9.07
2018-06-10T11:48:39.429Z,9.47
2018-06-10T11:51:08.342Z,8.97
2018-06-10T11:53:37.300Z,9.03
2018-06-10T11:56:06.210Z,8.00
2018-06-10T11:58:34.807Z,13.37
2018-06-10T12:01:03.782Z,10.70
2018-06-10T12:03:32.748Z,11.07
2018-06-10T12:06:01.686Z,9.47
2018-06-10T12:08:30.586Z,10.00
2018-06-10T12:10:59.436Z,8.77
2018-06-10T12:13:28.426Z,9.47
2018-06-10T12:15:57.356Z,10.23
2018-06-10T12:18:26.281Z,8.20
2018-06-10T12:20:55.247Z,10.23
2018-06-10T12:23:23.829Z,9.03
2018-06-10T12:25:52.806Z,9.17
2018-06-10T12:28:21.782Z,9.47
2018-06-10T12:30:50.734Z,7.77
2018-06-10T12:33:20.450Z,8.63
2018-06-10T12:35:49.362Z,7.23
2018-06-10T12:38:18.261Z,10.40
2018-06-10T12:40:47.133Z,8.83
2018-06-10T12:43:16.105Z,8.53
2018-06-10T12:45:44.960Z,5.47
2018-06-10T12:48:13.879Z,6.20
2018-06-10T12:50:42.773Z,5.53
2018-06-10T12:53:11.670Z,6.10
2018-06-10T12:55:40.608Z,5.97
2018-06-10T12:58:09.492Z,5.77
2018-06-10T13:00:38.474Z,5.40
2018-06-10T13:03:07.418Z,7.40
2018-06-10T13:05:36.981Z,5.23
2018-06-10T13:08:06.252Z,5.77
2018-06-10T13:10:35.109Z,7.10
2018-06-10T13:13:04.082Z,8.70
2018-06-10T13:15:33.009Z,7.63
2018-06-10T13:18:01.851Z,8.77
2018-06-10T13:20:31.769Z,8.27
2018-06-10T13:23:00.629Z,6.87
2018-06-10T13:25:29.488Z,5.87
2018-06-10T13:27:58.465Z,5.93
2018-06-10T13:30:27.352Z,6.23
2018-06-10T13:32:56.293Z,8.30
2018-06-10T13:35:25.154Z,7.23
2018-06-10T13:37:54.009Z,7.57
2018-06-10T13:40:22.950Z,6.70
2018-06-10T13:42:51.820Z,8.00
2018-06-10T13:45:20.680Z,8.97
2018-06-10T13:47:49.584Z,9.17
2018-06-10T13:50:18.479Z,6.90
2018-06-10T13:52:47.435Z,6.30
2018-06-10T13:55:16.536Z,8.80
2018-06-10T13:57:45.453Z,5.63
2018-06-10T14:00:14.388Z,5.77
2018-06-10T14:02:43.325Z,6.53
2018-06-10T14:05:12.245Z,6.53
2018-06-10T14:07:41.334Z,9.00
2018-06-10T14:10:10.393Z,14.27
2018-06-10T14:12:39.420Z,8.57
2018-06-10T14:15:08.377Z,7.37
2018-06-10T14:17:37.434Z,6.13
2018-06-10T14:20:06.353Z,8.83
2018-06-10T14:22:34.918Z,8.13
2018-06-10T14:25:03.836Z,9.77
2018-06-10T14:27:32.895Z,8.43
2018-06-10T14:30:01.929Z,10.10
2018-06-10T14:32:30.895Z,6.17
2018-06-10T14:34:59.814Z,9.83
2018-06-10T14:37:28.802Z,9.83
2018-06-10T14:39:57.811Z,6.90
2018-06-10T14:42:26.709Z,7.97
2018-06-10T14:44:55.574Z,7.63
2018-06-10T14:47:24.513Z,10.43
2018-06-10T14:49:53.376Z,9.23
2018-06-10T14:52:22.286Z,7.00
2018-06-10T14:54:51.265Z,9.47
2018-06-10T14:57:20.853Z,9.57
2018-06-10T14:59:49.834Z,11.00
2018-06-10T15:02:19.189Z,8.00
2018-06-10T15:04:48.059Z,9.23
2018-06-10T15:07:16.979Z,7.03
2018-06-10T15:09:45.837Z,13.77
2018-06-10T15:12:14.848Z,8.93
2018-06-10T15:14:44.279Z,17.83
2018-06-10T15:17:13.226Z,9.37
2018-06-10T15:19:42.097Z,11.67
2018-06-10T15:22:10.978Z,10.73
2018-06-10T15:24:39.839Z,8.17
2018-06-10T15:27:08.704Z,13.33
2018-06-10T15:29:37.595Z,13.53
2018-06-10T15:32:06.624Z,9.70
2018-06-10T15:34:35.663Z,9.90
2018-06-10T15:37:04.610Z,13.00
2018-06-10T15:39:33.558Z,10.60
2018-06-10T15:42:02.693Z,8.27
2018-06-10T15:44:31.576Z,8.87
2018-06-10T15:47:00.559Z,10.47
2018-06-10T15:49:29.457Z,6.83
2018-06-10T15:51:58.362Z,12.97
2018-06-10T15:54:27.238Z,7.50
2018-06-10T15:56:56.186Z,11.27
2018-06-10T15:59:25.148Z,9.03
2018-06-10T16:01:54.209Z,8.30
2018-06-10T16:04:23.126Z,6.17
2018-06-10T16:06:52.061Z,8.27
2018-06-10T16:09:21.086Z,10.80
2018-06-10T16:11:50.481Z,13.43
2018-06-10T16:14:19.356Z,8.20
2018-06-10T16:16:48.293Z,7.27
2018-06-10T16:19:17.364Z,7.47
2018-06-10T16:21:46.328Z,5.53
2018-06-10T16:24:15.250Z,8.40
2018-06-10T16:26:44.179Z,6.20
2018-06-10T16:29:13.596Z,7.50
2018-06-10T16:31:42.621Z,8.43
2018-06-10T16:34:11.547Z,8.70
2018-06-10T16:36:40.452Z,9.47
2018-06-10T16:39:09.870Z,7.10
2018-06-10T16:41:38.773Z,8.90
2018-06-10T16:44:07.657Z,14.53
2018-06-10T16:46:36.596Z,9.67
2018-06-10T16:49:05.980Z,11.33
2018-06-10T16:51:34.920Z,7.17
2018-06-10T16:54:04.218Z,8.60
2018-06-10T16:56:33.097Z,8.17
2018-06-10T16:59:01.992Z,9.83
2018-06-10T17:01:30.936Z,8.23
2018-06-10T17:03:59.884Z,11.47
2018-06-10T17:06:29.037Z,7.83
2018-06-10T17:08:57.567Z,10.30
2018-06-10T17:11:26.456Z,8.17
2018-06-10T17:13:55.334Z,8.13
2018-06-10T17:16:25.123Z,10.27
2018-06-10T17:18:54.151Z,10.40
2018-06-10T17:21:23.052Z,10.57
2018-06-10T17:23:52.131Z,10.33
2018-06-10T17:26:21.098Z,5.23
2018-06-10T17:28:50.082Z,13.27
2018-06-10T17:31:18.943Z,8.17
2018-06-10T17:33:47.937Z,7.93
2018-06-10T17:36:16.806Z,7.97
2018-06-10T17:38:45.665Z,7.37
2018-06-10T17:41:14.552Z,6.03
2018-06-10T17:43:43.520Z,7.33
2018-06-10T17:46:12.475Z,7.23
2018-06-10T17:48:41.399Z,9.47
2018-06-10T17:51:10.254Z,9.70
2018-06-10T17:53:39.182Z,9.37
2018-06-10T17:56:08.006Z,8.53
2018-06-10T17:58:36.933Z,7.80
2018-06-10T18:01:05.853Z,7.27
2018-06-10T18:03:34.822Z,5.30
2018-06-10T18:06:03.873Z,5.97
2018-06-10T18:08:32.780Z,5.63
2018-06-10T18:11:01.689Z,5.90
2018-06-10T18:13:30.635Z,9.90
2018-06-10T18:15:59.573Z,6.13
2018-06-10T18:18:29.223Z,8.60
2018-06-10T18:20:58.298Z,7.80
2018-06-10T18:23:27.378Z,8.80
2018-06-10T18:25:56.002Z,6.47
2018-06-10T18:28:24.944Z,4.03
2018-06-10T18:30:53.865Z,7.73
2018-06-10T18:33:22.810Z,7.40
2018-06-10T18:35:51.693Z,5.50
2018-06-10T18:38:20.706Z,10.77
2018-06-10T18:40:50.320Z,6.80
2018-06-10T18:43:20.175Z,6.77
2018-06-10T18:45:49.071Z,7.47
2018-06-10T18:48:17.985Z,6.13
2018-06-10T18:50:46.912Z,4.10
2018-06-10T18:53:15.900Z,6.53
2018-06-10T18:55:44.931Z,8.03
2018-06-10T18:58:13.832Z,7.87
2018-06-10T19:00:42.779Z,5.40
2018-06-10T19:03:11.694Z,7.20
2018-06-10T19:05:40.805Z,6.27
2018-06-10T19:08:09.708Z,6.03
2018-06-10T19:10:38.627Z,12.37
2018-06-10T19:13:07.594Z,6.53
2018-06-10T19:15:36.523Z,7.60
2018-06-10T19:18:05.675Z,6.93
2018-06-10T19:20:34.629Z,7.10
2018-06-10T19:23:03.563Z,6.33
2018-06-10T19:25:32.482Z,6.07
2018-06-10T19:28:01.570Z,9.50
2018-06-10T19:30:30.529Z,4.90
2018-06-10T19:32:59.393Z,6.87
2018-06-10T19:35:28.389Z,8.80
2018-06-10T19:37:57.307Z,6.33
2018-06-10T19:40:26.317Z,5.97
2018-06-10T19:42:55.249Z,6.80
2018-06-10T19:45:24.226Z,7.17
2018-06-10T19:47:53.165Z,7.23
2018-06-10T19:50:22.269Z,7.37
2018-06-10T19:52:51.158Z,8.10
2018-06-10T19:55:20.181Z,8.00
2018-06-10T19:57:49.186Z,8.33
2018-06-10T20:00:18.278Z,5.97
2018-06-10T20:02:47.202Z,6.03
2018-06-10T20:05:16.062Z,9.00
2018-06-10T20:07:45.063Z,6.97
2018-06-10T20:10:13.945Z,7.47
2018-06-10T20:12:42.814Z,7.80
2018-06-10T20:15:11.726Z,13.60
2018-06-10T20:17:40.749Z,6.23
2018-06-10T20:20:09.405Z,8.30
2018-06-10T20:22:38.367Z,10.63
2018-06-10T20:25:07.497Z,8.20
2018-06-10T20:27:36.513Z,7.83
2018-06-10T20:30:05.731Z,8.90
2018-06-10T20:32:34.781Z,12.90
2018-06-10T20:35:03.739Z,8.83
2018-06-10T20:37:32.717Z,7.47
2018-06-10T20:40:01.399Z,11.43
2018-06-10T20:42:30.339Z,5.50
2018-06-10T20:44:59.346Z,7.93
2018-06-10T20:47:28.260Z,5.87
2018-06-10T20:49:57.541Z,8.63
2018-06-10T20:52:26.457Z,8.10
2018-06-10T20:54:55.341Z,10.00
2018-06-10T20:57:24.376Z,8.23
2018-06-10T20:59:53.374Z,8.10
2018-06-10T21:02:22.418Z,8.17
2018-06-10T21:04:51.274Z,9.17
2018-06-10T21:07:20.465Z,7.07
2018-06-10T21:09:49.571Z,11.33
2018-06-10T21:12:21.705Z,9.23
2018-06-10T21:14:50.628Z,12.23
2018-06-10T21:17:19.548Z,8.13
2018-06-10T21:19:48.450Z,5.53
2018-06-10T21:22:17.051Z,6.97
2018-06-10T21:24:45.891Z,7.50
2018-06-10T21:27:14.982Z,8.90
2018-06-10T21:29:44.724Z,7.10
2018-06-10T21:32:13.637Z,9.53
2018-06-10T21:34:42.701Z,11.27
2018-06-10T21:37:11.649Z,8.67
2018-06-10T21:39:40.612Z,8.70
2018-06-10T21:42:09.528Z,10.63
2018-06-10T21:44:38.490Z,10.07
2018-06-10T21:47:07.666Z,8.13
2018-06-10T21:49:36.556Z,11.10
2018-06-10T21:52:05.420Z,9.50
2018-06-10T21:54:34.313Z,10.70
2018-06-10T21:57:03.190Z,8.37
2018-06-10T21:59:32.220Z,10.27
2018-06-10T22:02:01.197Z,7.93
2018-06-10T22:04:30.147Z,7.50
2018-06-10T22:06:59.200Z,7.67
2018-06-10T22:09:28.098Z,8.77
2018-06-10T22:11:57.061Z,8.77
2018-06-10T22:14:25.661Z,6.70
2018-06-10T22:16:54.669Z,8.73
2018-06-10T22:19:23.609Z,10.10
2018-06-10T22:21:53.218Z,8.00
2018-06-10T22:24:22.414Z,9.93
2018-06-10T22:26:51.415Z,8.00
2018-06-10T22:29:20.294Z,7.77
2018-06-10T22:31:49.322Z,8.87
2018-06-10T22:34:18.433Z,7.07
2018-06-10T22:36:47.250Z,10.50
2018-06-10T22:39:16.361Z,7.50
2018-06-10T22:41:45.360Z,7.20
2018-06-10T22:44:14.357Z,14.97
2018-06-10T22:46:43.352Z,8.27
2018-06-10T22:49:12.286Z,7.67
2018-06-10T22:51:41.285Z,11.40
2018-06-10T22:54:37.353Z,10.23
2018-06-10T22:57:06.684Z,6.23
2018-06-10T22:59:35.607Z,6.77
2018-06-10T23:02:05.358Z,6.73
2018-06-10T23:04:34.358Z,7.73
2018-06-10T23:07:03.385Z,7.07
2018-06-10T23:09:32.438Z,5.60
2018-06-10T23:12:02.014Z,8.43
2018-06-10T23:14:31.029Z,9.93
2018-06-10T23:17:00.085Z,8.03
2018-06-10T23:19:30.045Z,9.10
2018-06-10T23:21:58.930Z,7.93
2018-06-10T23:24:28.593Z,6.00
2018-06-10T23:26:57.552Z,6.10
2018-06-10T23:29:26.465Z,6.50
2018-06-10T23:31:55.324Z,7.33
2018-06-10T23:34:24.287Z,9.90
2018-06-10T23:36:53.197Z,6.87
2018-06-10T23:39:22.091Z,6.03
2018-06-10T23:41:51.024Z,5.60
2018-06-10T23:44:19.970Z,5.93
2018-06-10T23:46:49.067Z,5.90
2018-06-10T23:49:18.735Z,6.23
2018-06-10T23:51:48.204Z,8.20
2018-06-10T23:54:17.094Z,8.90
2018-06-10T23:56:46.038Z,7.67
2018-06-10T23:59:14.991Z,5.93
